Time;durP1;ratioP1;P1;durP2;ratioP2;P2;SDS_P1;SDS_P2;PMS_P1;PMS_P2;Temp;Humidity;BMP_temperature;BMP_pressure;BME280_temperature;BME280_humidity;BME280_pressure;Samples;Min_cycle;Max_cycle;Signal;HPM_P1;HPM_P2
2023/04/23 00:01:49;;;;;;;56.80;35.75;;;13.90;85.10;;;13.23;68.38;99789.66;5048216;28;20131;-78
2023/04/23 00:04:18;;;;;;;57.38;37.33;;;13.90;85.10;;;13.22;68.30;99790.69;5041475;28;20170;-76
2023/04/23 00:06:47;;;;;;;60.28;37.22;;;13.90;85.10;;;13.21;68.32;99792.53;5042129;28;20581;-79
2023/04/23 00:09:16;;;;;;;59.08;36.67;;;13.90;85.10;;;13.20;68.45;99788.25;5048722;28;20041;-76
2023/04/23 00:11:45;;;;;;;56.83;36.20;;;13.90;85.10;;;13.18;68.23;99782.34;5041922;28;20048;-78
2023/04/23 00:14:13;;;;;;;56.70;36.38;;;13.90;85.10;;;13.17;68.76;99783.38;5045286;28;20049;-76
2023/04/23 00:16:41;;;;;;;58.13;35.72;;;13.80;85.10;;;13.15;68.49;99780.94;5041479;28;20051;-80
2023/04/23 00:19:08;;;;;;;58.33;37.85;;;13.80;85.10;;;13.15;68.70;99772.09;5047483;28;20068;-76
2023/04/23 00:21:36;;;;;;;56.17;36.20;;;13.80;85.10;;;13.13;68.47;99780.38;5048555;28;20102;-78
2023/04/23 00:24:03;;;;;;;58.90;37.17;;;13.80;85.10;;;13.13;68.55;99776.91;5047779;28;20129;-79
2023/04/23 00:26:31;;;;;;;56.03;36.00;;;13.80;85.10;;;13.11;68.44;99777.13;5048043;28;20583;-76
2023/04/23 00:28:59;;;;;;;62.25;37.67;;;13.80;85.10;;;13.10;68.62;99780.88;5029504;28;20049;-77
2023/04/23 00:31:26;;;;;;;60.10;37.22;;;13.80;85.20;;;13.09;68.65;99784.59;5045141;28;20524;-78
2023/04/23 00:33:54;;;;;;;58.80;37.53;;;13.80;85.30;;;13.08;68.65;99787.53;5045521;28;20118;-77
2023/04/23 00:36:22;;;;;;;58.38;36.20;;;13.70;85.20;;;13.08;68.78;99779.50;5045905;28;20041;-78
2023/04/23 00:38:49;;;;;;;58.92;37.35;;;13.70;85.30;;;13.06;68.81;99778.94;5023071;28;20064;-79
2023/04/23 00:41:17;;;;;;;56.70;36.42;;;13.70;85.30;;;13.06;68.84;99784.28;5028320;28;20136;-80
2023/04/23 00:43:47;;;;;;;55.03;36.13;;;13.70;85.40;;;13.04;68.89;99783.72;5032162;28;20145;-79
2023/04/23 00:46:15;;;;;;;58.08;36.05;;;13.70;85.40;;;13.03;68.75;99774.03;5028038;28;20052;-77
2023/04/23 00:48:42;;;;;;;55.45;35.70;;;13.70;85.40;;;13.01;68.77;99776.97;5029913;28;20531;-78
2023/04/23 00:51:12;;;;;;;58.00;36.63;;;13.70;85.50;;;13.01;68.77;99776.16;5029068;28;20131;-80
2023/04/23 00:53:39;;;;;;;54.35;34.80;;;13.70;85.50;;;13.00;68.89;99764.66;5030073;28;20045;-79
2023/04/23 00:56:07;;;;;;;52.65;33.50;;;13.70;85.50;;;13.00;68.81;99774.56;5048275;28;20044;-77
2023/04/23 00:58:35;;;;;;;49.10;33.45;;;13.70;85.60;;;13.00;68.90;99763.84;5022072;28;20041;-79
2023/04/23 01:01:04;;;;;;;55.03;33.97;;;13.70;85.50;;;13.00;69.04;99766.53;5030326;28;20894;-77
2023/04/23 01:03:32;;;;;;;50.97;31.90;;;13.70;85.50;;;13.00;68.84;99771.88;5048052;28;20040;-77
2023/04/23 01:06:00;;;;;;;48.03;31.17;;;13.60;85.50;;;12.99;68.82;99764.91;5029559;28;20566;-78
2023/04/23 01:08:28;;;;;;;48.10;30.30;;;13.60;85.50;;;12.97;68.94;99775.03;5029265;28;20136;-77
2023/04/23 01:10:55;;;;;;;44.83;30.65;;;13.70;85.50;;;12.97;68.82;99772.34;5047037;28;20135;-79
2023/04/23 01:13:25;;;;;;;47.00;30.40;;;13.60;85.40;;;12.97;68.87;99767.81;5029926;28;20513;-79
2023/04/23 01:15:53;;;;;;;46.58;29.42;;;13.60;85.40;;;12.96;68.92;99773.41;5013157;28;20077;-79
2023/04/23 01:18:23;;;;;;;49.65;31.02;;;13.60;85.40;;;12.95;68.54;99769.13;5047964;28;20509;-79
2023/04/23 01:20:50;;;;;;;45.35;30.30;;;13.60;85.40;;;12.95;68.93;99766.44;5045505;28;20098;-79
2023/04/23 01:23:19;;;;;;;45.53;28.50;;;13.60;85.50;;;12.94;69.01;99767.50;5038991;28;20592;-76
2023/04/23 01:25:47;;;;;;;55.38;29.58;;;13.60;85.40;;;12.92;69.05;99773.09;5038379;28;20049;-78
2023/04/23 01:28:14;;;;;;;45.35;30.25;;;13.60;85.40;;;12.92;68.99;99777.63;5025288;28;20805;-76
2023/04/23 01:30:43;;;;;;;45.80;29.45;;;13.60;85.50;;;12.90;68.87;99759.16;5025474;28;20051;-78
2023/04/23 01:33:11;;;;;;;44.40;29.45;;;13.60;85.40;;;12.87;68.86;99760.44;5047119;28;20040;-76
2023/04/23 01:35:40;;;;;;;43.55;27.58;;;13.60;85.50;;;12.86;68.86;99756.13;5046887;28;20044;-76
2023/04/23 01:38:10;;;;;;;45.95;28.95;;;13.60;85.50;;;12.86;68.84;99763.34;5046931;28;20076;-77
2023/04/23 01:40:39;;;;;;;42.80;28.43;;;13.50;85.50;;;12.84;68.69;99760.94;5039022;28;20045;-75
2023/04/23 01:43:07;;;;;;;42.75;28.10;;;13.50;85.50;;;12.83;68.89;99764.66;5020210;28;20317;-77
2023/04/23 01:45:34;;;;;;;41.88;27.52;;;13.50;85.40;;;12.82;68.80;99759.53;5029031;28;20045;-77
2023/04/23 01:48:02;;;;;;;41.40;27.17;;;13.50;85.50;;;12.80;68.64;99751.78;5050084;28;20118;-76
2023/04/23 01:50:30;;;;;;;41.33;26.98;;;13.50;85.40;;;12.79;68.80;99758.19;5027767;28;20072;-76
2023/04/23 01:52:57;;;;;;;40.42;26.13;;;13.50;85.40;;;12.76;68.64;99752.50;5050860;28;20041;-77
2023/04/23 01:55:25;;;;;;;41.80;26.20;;;13.50;85.30;;;12.74;68.63;99750.06;5031053;28;20053;-76
2023/04/23 01:57:53;;;;;;;36.78;25.17;;;13.50;85.30;;;12.72;68.58;99754.84;5027272;28;20046;-77
2023/04/23 02:00:21;;;;;;;34.80;24.58;;;13.40;85.10;;;12.71;68.41;99755.91;5038111;28;20041;-77
2023/04/23 02:02:49;;;;;;;37.20;25.08;;;13.40;85.10;;;12.69;68.33;99755.34;5050191;28;20773;-76
2023/04/23 02:05:19;;;;;;;39.67;26.85;;;13.40;85.00;;;12.66;68.32;99757.69;5053056;28;20416;-76
2023/04/23 02:07:49;;;;;;;38.60;26.30;;;13.40;85.00;;;12.64;68.09;99763.28;5029686;28;21937;-76
2023/04/23 02:10:17;;;;;;;36.50;24.17;;;13.40;85.00;;;12.60;68.01;99754.94;5031634;28;20128;-76
2023/04/23 02:12:45;;;;;;;35.75;25.00;;;13.30;84.80;;;12.58;68.02;99759.69;5049770;28;20045;-78
2023/04/23 02:15:15;;;;;;;39.90;25.77;;;13.30;84.80;;;12.57;67.84;99757.25;5035183;28;20103;-76
2023/04/23 02:17:42;;;;;;;38.45;25.52;;;13.20;84.60;;;12.54;67.71;99749.72;5049455;28;20417;-76
2023/04/23 02:20:11;;;;;;;38.75;25.58;;;13.20;84.50;;;12.50;67.76;99751.28;5037155;28;20049;-78
2023/04/23 02:22:40;;;;;;;37.88;25.60;;;13.20;84.50;;;12.48;67.66;99748.00;5046611;28;20610;-76
2023/04/23 02:25:09;;;;;;;38.17;25.67;;;13.20;84.50;;;12.44;67.74;99746.88;5048798;28;20072;-77
2023/04/23 02:27:37;;;;;;;40.05;25.08;;;13.20;84.50;;;12.41;67.60;99742.00;5048427;28;20043;-77
2023/04/23 02:30:07;;;;;;;36.95;26.00;;;13.10;84.40;;;12.38;67.68;99735.28;5047528;28;20575;-77
2023/04/23 02:32:36;;;;;;;40.42;27.75;;;13.10;84.50;;;12.38;67.77;99735.28;5029491;28;20103;-76
2023/04/23 02:35:05;;;;;;;38.45;24.92;;;13.10;84.70;;;12.37;67.83;99733.66;5050250;28;20078;-77
2023/04/23 02:37:33;;;;;;;35.10;23.92;;;13.10;84.70;;;12.34;67.65;99740.28;5023345;28;20047;-76
2023/04/23 02:40:00;;;;;;;38.28;25.85;;;13.00;84.50;;;12.32;67.73;99746.94;5047282;28;20044;-76
2023/04/23 02:42:27;;;;;;;39.47;27.00;;;13.10;84.50;;;12.29;67.53;99748.22;5048677;28;20083;-77
2023/04/23 02:44:54;;;;;;;35.25;24.77;;;13.00;84.50;;;12.25;67.43;99747.09;5033552;28;20044;-77
2023/04/23 02:47:22;;;;;;;37.05;23.77;;;13.00;84.30;;;12.22;67.16;99739.53;5023839;28;20267;-77
2023/04/23 02:49:50;;;;;;;37.55;25.02;;;13.00;84.10;;;12.21;67.43;99743.28;5045865;28;20047;-76
2023/04/23 02:52:18;;;;;;;35.47;24.10;;;12.90;84.20;;;12.17;66.98;99744.81;5030368;28;20471;-77
2023/04/23 02:54:45;;;;;;;37.95;25.00;;;12.90;84.00;;;12.11;66.92;99743.91;5030448;28;20057;-77
2023/04/23 02:57:14;;;;;;;35.67;23.73;;;12.90;84.00;;;12.08;66.91;99736.34;5034350;28;20071;-76
2023/04/23 02:59:42;;;;;;;36.40;24.67;;;12.80;83.90;;;12.05;67.05;99731.50;5031087;28;20056;-78
2023/04/23 03:02:09;;;;;;;38.10;25.65;;;12.80;83.90;;;12.03;66.79;99733.59;5030093;28;20052;-76
2023/04/23 03:04:37;;;;;;;34.30;24.30;;;12.80;83.80;;;12.00;66.97;99734.03;5030483;28;20044;-77
2023/04/23 03:07:05;;;;;;;35.45;23.90;;;12.70;83.90;;;11.98;66.89;99738.84;5030417;28;20056;-78
2023/04/23 03:09:33;;;;;;;33.45;23.40;;;12.70;83.90;;;11.96;66.98;99734.78;5028282;28;20045;-78
2023/04/23 03:12:01;;;;;;;38.65;25.13;;;12.60;83.90;;;11.95;67.14;99733.94;5044965;28;20083;-74
2023/04/23 03:14:29;;;;;;;37.22;23.52;;;12.60;84.00;;;11.96;67.30;99734.78;5030596;28;20137;-77
2023/04/23 03:16:56;;;;;;;36.40;24.25;;;12.60;84.30;;;11.94;67.57;99729.66;5039388;28;20095;-77
2023/04/23 03:19:24;;;;;;;39.33;26.95;;;12.60;84.30;;;11.96;67.57;99734.78;5026752;28;20064;-77
2023/04/23 03:21:51;;;;;;;37.13;24.88;;;12.70;84.70;;;11.96;67.66;99729.44;5038251;28;20076;-76
2023/04/23 03:24:20;;;;;;;35.97;25.58;;;12.60;84.70;;;11.97;67.87;99731.88;5046905;28;20560;-75
2023/04/23 03:26:47;;;;;;;36.42;26.20;;;12.60;84.80;;;11.97;67.98;99729.19;5030489;28;20049;-77
2023/04/23 03:29:15;;;;;;;34.45;23.67;;;12.60;84.80;;;11.96;67.75;99732.13;5029484;28;20102;-76
2023/04/23 03:31:43;;;;;;;34.60;24.48;;;12.70;84.90;;;11.96;67.63;99726.78;5029804;28;20136;-76
2023/04/23 03:34:11;;;;;;;35.05;24.08;;;12.60;84.70;;;11.95;67.75;99725.94;5026333;28;20584;-77
2023/04/23 03:36:39;;;;;;;34.42;24.75;;;12.60;84.70;;;11.98;67.92;99727.34;5030770;28;20048;-76
2023/04/23 03:39:07;;;;;;;36.38;25.23;;;12.60;84.90;;;11.97;68.05;99712.34;5033140;28;20124;-77
2023/04/23 03:41:48;;;;;;;35.63;25.17;;;12.60;85.00;;;11.99;68.12;99715.59;5026913;28;20045;-76
2023/04/23 03:44:17;;;;;;;36.00;26.30;;;12.60;85.10;;;12.02;68.32;99720.47;5016074;28;20055;-76
2023/04/23 03:46:46;;;;;;;36.90;24.88;;;12.60;85.30;;;12.03;68.52;99716.75;5031137;28;20082;-78
2023/04/23 03:49:16;;;;;;;36.92;26.27;;;12.70;85.50;;;12.06;68.70;99713.59;5027221;28;20128;-76
2023/04/23 03:51:44;;;;;;;36.85;25.42;;;12.70;85.70;;;12.07;68.66;99702.66;5029818;28;20045;-77
2023/04/23 03:54:11;;;;;;;37.58;26.15;;;12.70;85.70;;;12.10;69.00;99701.34;5029771;28;20106;-76
2023/04/23 03:56:41;;;;;;;34.25;25.13;;;12.70;85.90;;;12.11;69.03;99703.00;5029450;28;20052;-77
2023/04/23 03:59:29;;;;;;;35.33;24.25;;;12.70;85.90;;;12.15;69.33;99690.78;5031405;28;20041;-76
2023/04/23 04:01:59;;;;;;;34.75;24.77;;;12.80;86.10;;;12.18;69.22;99692.16;5045030;28;20052;-76
2023/04/23 04:04:27;;;;;;;38.35;25.48;;;12.80;86.20;;;12.20;69.22;99690.88;5029889;28;20057;-77
2023/04/23 04:06:56;;;;;;;36.78;25.65;;;12.80;86.20;;;12.22;69.56;99688.75;5033868;28;20041;-78
2023/04/23 04:09:27;;;;;;;;;;;12.90;86.50;;;12.23;69.57;99681.53;5024981;28;20064;-77
2023/04/23 04:11:55;;;;;;;34.30;24.70;;;12.90;86.40;;;12.24;69.72;99691.97;5024979;28;20020;-76
2023/04/23 04:14:22;;;;;;;34.88;23.40;;;12.90;86.40;;;12.25;69.54;99690.13;5055300;28;20044;-76
2023/04/23 04:16:51;;;;;;;34.95;24.45;;;12.90;86.40;;;12.27;69.60;99698.72;5043378;28;20037;-77
2023/04/23 04:19:18;;;;;;;34.20;23.95;;;12.90;86.30;;;12.25;69.48;99693.63;5045992;28;20041;-78
2023/04/23 04:21:46;;;;;;;33.80;23.08;;;12.90;86.30;;;12.25;69.49;99693.63;5041496;28;20045;-75
2023/04/23 04:24:13;;;;;;;37.25;23.15;;;12.90;86.30;;;12.25;69.35;99693.63;5042555;28;20525;-77
2023/04/23 04:26:41;;;;;;;31.38;22.70;;;12.90;86.20;;;12.26;69.25;99684.53;5044931;28;20048;-77
2023/04/23 04:29:09;;;;;;;31.40;22.40;;;12.90;86.20;;;12.25;69.31;99690.13;5043172;28;20065;-78
2023/04/23 04:31:36;;;;;;;30.80;21.35;;;12.90;86.10;;;12.23;69.28;99689.56;5047615;28;20091;-76
2023/04/23 04:34:06;;;;;;;31.42;22.45;;;12.90;86.00;;;12.22;69.11;99685.28;5045977;28;20099;-76
2023/04/23 04:36:34;;;;;;;29.02;21.10;;;12.90;85.90;;;12.19;68.92;99677.72;5040390;28;20041;-77
2023/04/23 04:41:28;;;;;;;29.45;21.02;;;12.90;85.80;;;12.17;68.81;99690.53;5022404;28;20041;-76
2023/04/23 04:43:57;;;;;;;28.65;20.70;;;12.90;85.70;;;12.13;68.71;99684.84;5025196;28;20124;-75
2023/04/23 04:46:27;;;;;;;31.90;21.02;;;12.80;85.40;;;12.10;68.72;99686.16;5027993;28;20049;-76
2023/04/23 04:48:55;;;;;;;32.10;22.33;;;12.80;85.50;;;12.11;68.69;99676.28;5027824;28;20104;-76
2023/04/23 04:51:23;;;;;;;27.55;19.48;;;12.80;85.50;;;12.09;68.90;99687.19;5027694;28;20056;-76
2023/04/23 04:53:51;;;;;;;29.08;19.88;;;12.80;85.50;;;12.07;68.68;99691.97;5024456;28;20041;-76
2023/04/23 04:56:18;;;;;;;25.60;19.35;;;12.80;85.50;;;12.07;68.67;99704.53;5027647;28;20045;-77
2023/04/23 04:58:45;;;;;;;29.13;19.25;;;12.80;85.40;;;12.06;68.68;99700.22;5026476;28;20045;-76
2023/04/23 05:01:12;;;;;;;26.58;19.17;;;12.80;85.50;;;12.07;68.76;99704.53;5028142;28;20115;-75
2023/04/23 05:03:39;;;;;;;27.95;19.10;;;12.80;85.50;;;12.07;68.94;99705.31;5027643;28;20056;-75
2023/04/23 05:06:07;;;;;;;27.60;19.60;;;12.80;85.70;;;12.14;69.04;99713.19;5028012;28;20080;-76
2023/04/23 05:08:35;;;;;;;25.48;18.60;;;12.80;85.70;;;12.19;69.12;99705.25;5020868;28;20573;-76
2023/04/23 05:11:03;;;;;;;24.77;17.92;;;12.90;85.70;;;12.26;69.01;99711.28;5017400;28;20064;-76
2023/04/23 05:13:31;;;;;;;28.25;18.95;;;12.90;85.90;;;12.35;68.93;99712.50;5024352;28;20045;-76
2023/04/23 05:15:58;;;;;;;26.90;18.95;;;13.00;85.50;;;12.45;68.75;99711.88;5026508;28;20060;-76
2023/04/23 05:18:26;;;;;;;26.15;18.75;;;13.10;85.50;;;12.59;69.05;99715.03;5025929;28;20038;-76
2023/04/23 05:20:53;;;;;;;24.20;17.77;;;13.20;86.10;;;12.70;69.31;99714.16;5027366;28;20056;-77
2023/04/23 05:23:20;;;;;;;23.05;17.15;;;13.30;86.40;;;12.82;69.28;99714.06;5029280;28;20042;-75
2023/04/23 05:25:50;;;;;;;24.33;17.13;;;13.50;86.50;;;12.94;69.49;99708.63;5030976;28;20056;-75
2023/04/23 05:28:17;;;;;;;25.23;17.67;;;13.60;86.60;;;13.03;69.92;99712.47;5026932;28;20045;-76
2023/04/23 05:30:45;;;;;;;23.17;17.70;;;13.70;86.90;;;13.06;69.34;99709.31;5029434;28;20065;-75
2023/04/23 05:33:12;;;;;;;22.20;16.73;;;13.70;86.30;;;13.12;69.35;99702.97;5029745;28;20049;-76
2023/04/23 05:35:39;;;;;;;24.08;16.90;;;13.80;86.40;;;13.16;69.51;99701.44;5013036;28;20052;-76
2023/04/23 05:38:06;;;;;;;22.92;16.65;;;13.80;86.60;;;13.21;69.88;99706.84;5029728;28;20041;-76
2023/04/23 05:40:34;;;;;;;25.90;15.73;;;13.90;86.90;;;13.31;69.98;99711.56;5036332;28;20079;-76
2023/04/23 05:43:02;;;;;;;22.58;15.52;;;14.00;86.90;;;13.36;69.82;99712.44;5051563;28;20509;-75
2023/04/23 05:45:30;;;;;;;21.33;15.82;;;14.00;86.50;;;13.37;69.47;99707.88;5050727;28;20465;-77
2023/04/23 05:47:57;;;;;;;23.65;16.95;;;14.00;86.20;;;13.37;69.58;99706.06;5051388;28;20900;-76
2023/04/23 05:50:24;;;;;;;19.85;14.40;;;14.10;86.10;;;13.38;69.54;99704.97;5039166;28;20417;-76
2023/04/23 05:52:52;;;;;;;19.50;15.00;;;14.10;86.20;;;13.37;69.38;99700.69;5060588;28;20121;-78
2023/04/23 05:55:20;;;;;;;19.08;14.60;;;14.10;85.90;;;13.35;68.99;99702.78;5051149;28;20045;-77
2023/04/23 05:57:47;;;;;;;21.52;15.43;;;14.00;85.80;;;13.36;69.24;99701.72;5049258;28;20081;-78
2023/04/23 06:00:16;;;;;;;21.75;16.65;;;14.10;85.80;;;13.35;69.42;99700.13;5050455;28;20041;-75
2023/04/23 06:02:44;;;;;;;22.35;16.40;;;14.10;85.90;;;13.35;69.70;99708.16;5049035;28;20048;-76
2023/04/23 06:05:11;;;;;;;21.60;15.23;;;14.10;86.00;;;13.31;69.80;99698.97;5033212;28;20410;-76
2023/04/23 06:07:39;;;;;;;22.25;15.38;;;14.10;86.20;;;13.33;69.55;99702.25;5050227;28;20055;-76
2023/04/23 06:10:08;;;;;;;21.25;15.80;;;14.00;86.10;;;13.34;69.73;99705.72;5045726;28;20044;-75
2023/04/23 06:12:37;;;;;;;21.35;15.32;;;14.10;86.10;;;13.35;69.84;99712.69;5042796;28;20047;-77
2023/04/23 06:15:07;;;;;;;21.27;15.45;;;14.10;86.00;;;13.33;70.00;99693.41;5045785;28;20102;-77
2023/04/23 06:17:36;;;;;;;21.15;16.10;;;14.10;86.20;;;13.33;69.80;99707.59;5043750;28;20508;-77
2023/04/23 06:20:05;;;;;;;22.83;16.58;;;14.10;86.10;;;13.34;70.09;99698.50;5046783;28;20037;-77
2023/04/23 06:22:32;;;;;;;20.33;15.13;;;14.10;86.30;;;13.35;69.92;99697.44;5043362;28;20041;-77
2023/04/23 06:24:59;;;;;;;21.80;15.32;;;14.10;86.00;;;13.37;70.26;99707.88;5046612;28;20048;-77
2023/04/23 06:27:26;;;;;;;18.60;14.35;;;14.10;86.30;;;13.38;70.42;99702.31;5043872;28;20060;-75
2023/04/23 06:29:57;;;;;;;20.45;14.77;;;14.10;86.70;;;13.39;70.35;99701.25;5028470;28;20045;-77
2023/04/23 06:32:24;;;;;;;22.25;14.35;;;14.10;86.50;;;13.42;70.66;99699.94;5028616;28;20049;-78
2023/04/23 06:34:53;;;;;;;20.95;14.75;;;14.10;86.90;;;13.46;71.01;99702.91;5046833;28;20130;-76
2023/04/23 06:37:20;;;;;;;17.88;13.40;;;14.10;87.40;;;13.46;71.08;99692.19;5025996;28;20143;-77
2023/04/23 06:39:47;;;;;;;22.35;13.77;;;14.10;87.20;;;13.47;70.87;99693.81;5055792;28;20044;-77
2023/04/23 06:42:15;;;;;;;20.45;13.90;;;14.20;87.20;;;13.50;70.91;99696.00;5053222;28;20142;-76
2023/04/23 06:44:50;;;;;;;19.85;13.60;;;14.20;87.10;;;13.49;70.89;99697.06;5023166;28;20057;-76
2023/04/23 06:47:19;;;;;;;22.27;13.65;;;14.20;86.90;;;13.52;71.19;99697.41;5051128;28;20386;-76
2023/04/23 06:49:46;;;;;;;17.15;12.85;;;14.20;87.30;;;13.56;71.47;99692.31;5038463;28;20597;-76
2023/04/23 06:52:15;;;;;;;19.15;13.38;;;14.20;87.70;;;13.57;71.29;99693.97;5046522;28;20077;-77
2023/04/23 06:54:45;;;;;;;18.02;13.02;;;14.30;87.60;;;13.56;71.33;99686.97;5041691;28;20049;-76
2023/04/23 06:57:12;;;;;;;18.38;13.23;;;14.30;87.60;;;13.61;71.60;99687.03;5021801;28;20457;-75
2023/04/23 06:59:40;;;;;;;18.35;12.18;;;14.40;87.60;;;13.64;71.25;99694.56;5040747;28;20052;-75
2023/04/23 07:02:07;;;;;;;16.95;12.48;;;14.40;87.40;;;13.69;71.94;99693.81;5027410;28;20139;-76
2023/04/23 07:04:36;;;;;;;15.93;12.18;;;14.40;88.20;;;13.70;71.72;99690.88;5045177;28;20516;-76
2023/04/23 07:07:03;;;;;;;15.55;10.90;;;14.40;87.70;;;13.72;71.08;99686.09;5036573;28;20102;-77
2023/04/23 07:09:31;;;;;;;17.88;10.95;;;14.40;86.90;;;13.79;71.35;99688.56;5048350;28;20568;-76
2023/04/23 07:12:00;;;;;;;15.93;11.38;;;14.60;87.50;;;13.88;71.85;99687.88;5050234;28;20127;-76
2023/04/23 07:14:27;;;;;;;15.13;10.85;;;14.60;87.80;;;13.93;72.23;99680.94;5052475;28;20045;-76
2023/04/23 07:16:54;;;;;;;16.15;11.05;;;14.70;88.00;;;14.00;71.92;99674.31;5041187;28;20164;-76
2023/04/23 07:19:21;;;;;;;14.30;10.30;;;14.70;88.10;;;14.09;72.00;99675.47;5047582;28;20068;-76
2023/04/23 07:21:49;;;;;;;14.32;9.77;;;14.80;87.80;;;14.20;71.74;99671.03;5043735;28;20094;-75
2023/04/23 07:24:16;;;;;;;11.68;9.48;;;14.90;87.70;;;14.34;71.22;99669.53;5056975;28;20071;-76
2023/04/23 07:26:45;;;;;;;14.02;9.57;;;15.10;87.30;;;14.53;71.12;99661.13;5044816;28;20147;-76
2023/04/23 07:29:14;;;;;;;11.80;9.18;;;15.30;87.20;;;14.71;70.91;99657.25;5036496;28;20171;-76
2023/04/23 07:31:41;;;;;;;13.90;9.70;;;15.40;86.90;;;14.85;70.15;99656.53;5055470;28;20045;-76
2023/04/23 07:34:09;;;;;;;12.95;8.90;;;15.60;86.30;;;14.94;68.03;99654.16;5024235;28;20049;-76
2023/04/23 07:36:37;;;;;;;16.33;9.20;;;15.70;84.40;;;15.10;69.65;99655.88;5045764;28;20552;-77
2023/04/23 07:39:05;;;;;;;13.00;8.95;;;15.90;85.90;;;15.26;69.73;99648.69;5047364;28;20041;-76
2023/04/23 07:41:32;;;;;;;14.95;8.23;;;16.00;85.80;;;15.36;68.08;99639.84;5029347;28;20045;-76
2023/04/23 07:44:01;;;;;;;14.50;7.55;;;16.10;84.40;;;15.50;68.15;99649.03;5054897;28;20048;-74
2023/04/23 07:46:28;;;;;;;11.40;7.95;;;16.30;84.30;;;15.65;67.58;99645.63;5045723;28;20076;-75
2023/04/23 07:48:55;;;;;;;12.15;8.23;;;16.40;83.60;;;15.77;66.50;99643.50;5048333;28;20128;-76
2023/04/23 07:51:25;;;;;;;11.10;7.32;;;16.60;82.90;;;15.86;63.59;99641.94;5049723;28;21320;-77
2023/04/23 07:53:53;;;;;;;11.82;7.85;;;16.60;79.50;;;15.91;63.54;99643.81;5049246;28;20052;-75
2023/04/23 07:56:21;;;;;;;15.43;7.15;;;16.70;79.80;;;16.00;62.51;99646.75;5045040;28;20053;-74
2023/04/23 07:58:48;;;;;;;9.63;5.80;;;16.80;78.90;;;16.10;63.57;99649.47;5047363;28;20072;-75
2023/04/23 08:01:17;;;;;;;8.88;5.93;;;16.90;79.80;;;16.18;62.29;99651.63;5042122;28;20627;-77
2023/04/23 08:03:44;;;;;;;10.52;6.50;;;17.00;78.60;;;16.26;62.00;99644.91;5042469;28;20045;-76
2023/04/23 08:06:12;;;;;;;13.05;6.28;;;17.00;78.40;;;16.32;62.52;99646.53;5045869;28;20077;-74
2023/04/23 08:08:39;;;;;;;11.85;6.28;;;17.10;79.00;;;16.42;62.39;99639.25;5049785;28;20046;-76
2023/04/23 08:11:06;;;;;;;11.52;5.65;;;17.20;78.40;;;16.46;63.18;99637.66;5053417;28;20083;-76
2023/04/23 08:13:34;;;;;;;12.20;6.30;;;17.30;79.30;;;16.59;62.27;99630.06;5023151;28;20711;-75
2023/04/23 08:16:01;;;;;;;11.20;6.07;;;17.40;78.40;;;16.61;60.90;99628.75;5038719;28;20041;-76
2023/04/23 08:18:30;;;;;;;10.45;5.28;;;17.40;76.90;;;16.66;60.33;99630.63;5043721;28;20068;-76
2023/04/23 08:20:57;;;;;;;9.68;5.05;;;17.40;76.80;;;16.66;61.30;99630.63;5042837;28;20090;-74
2023/04/23 08:23:24;;;;;;;11.90;5.20;;;17.50;77.40;;;16.66;59.81;99623.34;5047850;28;20126;-74
2023/04/23 08:25:52;;;;;;;8.75;5.15;;;17.50;76.00;;;16.65;59.09;99629.00;5048215;28;20585;-75
2023/04/23 08:28:19;;;;;;;10.90;5.40;;;17.50;75.20;;;16.67;59.26;99629.53;5048018;28;20048;-73
2023/04/23 08:30:47;;;;;;;11.05;5.43;;;17.50;75.20;;;16.71;59.64;99623.38;5048065;28;20047;-74
2023/04/23 08:33:14;;;;;;;12.18;5.63;;;17.50;75.60;;;16.75;59.88;99615.56;5048337;28;20127;-75
2023/04/23 08:35:43;;;;;;;13.15;5.57;;;17.50;75.60;;;16.64;59.95;99603.16;5044540;28;20038;-74
2023/04/23 08:38:10;;;;;;;11.02;6.15;;;17.50;76.10;;;16.67;59.49;99610.69;5024157;28;20148;-75
2023/04/23 08:40:38;;;;;;;10.00;5.38;;;17.50;75.40;;;16.69;59.75;99616.63;5048140;28;20037;-74
2023/04/23 08:43:13;;;;;;;9.95;5.80;;;17.50;75.20;;;16.72;59.19;99624.97;5030233;28;20057;-76
2023/04/23 08:45:41;;;;;;;11.88;5.57;;;17.50;75.00;;;16.69;60.11;99625.50;5048569;28;20052;-74
2023/04/23 08:48:10;;;;;;;8.27;5.20;;;17.50;75.80;;;16.66;58.99;99625.25;5028738;28;20497;-75
2023/04/23 08:50:42;;;;;;;11.75;5.68;;;17.50;75.00;;;16.64;60.22;99617.44;5040402;28;20044;-74
2023/04/23 08:53:11;;;;;;;11.68;5.47;;;17.50;75.80;;;16.61;60.18;99622.56;5048416;28;20099;-76
2023/04/23 08:55:38;;;;;;;10.57;5.43;;;17.50;76.00;;;16.56;60.28;99626.06;5050186;28;20041;-76
2023/04/23 08:58:06;;;;;;;10.15;5.93;;;17.40;75.70;;;16.54;61.30;99622.81;5052523;28;20123;-73
2023/04/23 09:00:34;;;;;;;10.57;5.38;;;17.40;76.90;;;16.61;60.22;99622.56;5051849;28;20359;-74
2023/04/23 09:03:02;;;;;;;8.52;5.10;;;17.50;76.00;;;16.70;60.64;99627.13;5033506;28;20049;-74
2023/04/23 09:05:30;;;;;;;8.55;5.22;;;17.50;75.80;;;16.72;60.08;99629.56;5049949;28;20056;-74
2023/04/23 09:07:59;;;;;;;8.85;5.55;;;17.50;75.60;;;16.65;59.90;99626.31;5051831;28;20041;-74
2023/04/23 09:10:28;;;;;;;11.05;5.53;;;17.50;75.60;;;16.65;59.81;99615.56;5034050;28;20493;-75
2023/04/23 09:12:56;;;;;;;8.80;5.30;;;17.50;75.50;;;16.69;59.50;99616.63;5052276;28;20045;-75
2023/04/23 09:15:23;;;;;;;7.85;4.57;;;17.50;75.00;;;16.76;60.11;99614.47;5049986;28;20600;-73
2023/04/23 09:17:50;;;;;;;8.88;4.88;;;17.60;75.60;;;16.86;59.20;99605.56;5051424;28;20125;-75
2023/04/23 09:20:17;;;;;;;10.73;5.50;;;17.60;74.90;;;16.89;58.98;99605.81;5049068;28;20033;-75
2023/04/23 09:22:47;;;;;;;9.98;4.63;;;17.70;74.50;;;16.94;60.17;99605.81;5033137;28;20091;-75
2023/04/23 09:25:17;;;;;;;7.78;4.30;;;17.80;75.80;;;17.00;59.56;99603.91;5051543;28;20049;-75
2023/04/23 09:27:46;;;;;;;14.63;4.63;;;17.80;75.10;;;17.00;58.43;99601.22;5051866;28;20045;-76
2023/04/23 09:30:15;;;;;;;10.35;4.55;;;17.80;74.20;;;17.10;58.36;99598.47;5051062;28;20051;-75
2023/04/23 09:32:44;;;;;;;11.73;4.10;;;17.90;73.60;;;17.13;56.63;99594.41;5050861;28;20041;-73
2023/04/23 09:35:14;;;;;;;9.85;4.72;;;17.90;72.30;;;17.17;58.40;99598.16;5051797;28;20049;-75
2023/04/23 09:37:43;;;;;;;9.10;4.93;;;18.00;73.90;;;17.15;58.50;99600.34;5047352;28;20052;-74
2023/04/23 09:40:15;;;;;;;10.00;4.43;;;17.90;74.40;;;17.21;58.26;99599.22;5050724;28;20155;-73
2023/04/23 09:42:51;;;;;;;7.10;4.30;;;18.00;73.70;;;17.15;57.17;99595.75;5050634;28;20401;-75
2023/04/23 09:45:18;;;;;;;7.97;4.25;;;18.00;72.60;;;17.11;57.96;99588.50;5050439;28;20090;-73
2023/04/23 09:47:51;;;;;;;8.60;3.72;;;17.90;72.90;;;17.07;56.47;99584.75;5051413;28;20045;-76
2023/04/23 09:50:18;;;;;;;8.40;3.45;;;17.90;71.50;;;17.09;58.34;99590.69;5034913;28;20029;-74
2023/04/23 09:52:46;;;;;;;8.48;3.90;;;17.90;73.70;;;17.08;57.96;99597.13;5051371;28;20067;-74
2023/04/23 09:55:13;;;;;;;8.75;4.00;;;17.90;73.40;;;17.08;57.08;99597.13;5050001;28;20102;-75
2023/04/23 09:57:41;;;;;;;9.80;4.30;;;17.90;72.60;;;17.09;57.69;99599.56;5051379;28;20396;-74
2023/04/23 10:00:17;;;;;;;8.40;4.32;;;17.90;73.10;;;17.14;58.08;99596.03;5051124;28;20045;-75
2023/04/23 10:02:48;;;;;;;5.10;3.35;;;17.90;73.50;;;17.24;59.40;99582.53;5050667;28;20077;-74
2023/04/23 10:05:16;;;;;;;10.52;3.70;;;18.00;74.60;;;17.25;57.42;99584.94;5050948;28;20041;-75
2023/04/23 10:07:45;;;;;;;8.25;3.35;;;18.10;72.70;;;17.28;58.68;99582.78;5049930;28;20051;-73
2023/04/23 10:10:12;;;;;;;9.48;3.63;;;18.10;74.00;;;17.26;56.62;99577.66;5048307;28;20044;-73
2023/04/23 10:12:40;;;;;;;7.10;3.60;;;18.10;71.70;;;17.27;56.48;99578.44;5045088;28;20081;-77
2023/04/23 10:15:09;;;;;;;7.88;3.60;;;18.10;71.80;;;17.27;57.10;99573.88;5044835;28;20167;-76